Vilanova de Sau





Hora UTC 13:35
Temperatura 12.7 ºC
Humitat 67.0 %
Pressió 1022.9 hPa
Pluja 0.0 mm
Velocitat vent 14.6 km/h
Direcció vent ENE
Radiació solar 419.1 W/m²
Fuel 60.4 %

Dades diàries 2021-03-01



Hora UTC (hivern +1h; estiu +2h)
Temperatura (ºC) Humitat (%) Pressió (hPa) Velocitat vent (km/h) Precipitació (mm) Fuel (%) Radiació solar (W/m²)
Hora UTC Aire Humitat Pressió Vel. Dir. Vel. Max Dir. Intent. màx 5 min. Fuel Rad. Sol.
00:05 7.2 92.8 1023.4 2.6 ENE 2.6 E 0.0 70.7 0.0
00:10 7.6 90.5 1023.4 4.0 NE 11.5 ENE 0.0 70.8 0.0
00:15 7.9 89.0 1023.5 6.3 ENE 11.5 ENE 0.0 70.8 0.0
00:20 8.1 88.3 1023.4 6.0 NE 11.5 NE 0.0 70.8 0.0
00:25 8.2 88.1 1023.4 7.2 NE 14.2 NE 0.0 70.8 0.0
00:30 8.2 87.9 1023.4 5.6 NE 14.2 NE 0.0 70.8 0.0
00:35 8.2 88.0 1023.3 7.1 NE 14.2 NNE 0.0 70.9 0.0
00:40 8.2 88.0 1023.4 6.4 NE 11.5 ENE 0.0 70.9 0.0
00:45 8.2 87.8 1023.4 3.8 ENE 8.8 ENE 0.0 70.9 0.0
00:50 8.2 87.8 1023.4 5.4 ENE 8.8 NE 0.0 70.9 0.0
00:55 8.2 87.7 1023.4 3.2 ENE 8.8 ENE 0.0 70.9 0.0
01:00 8.1 87.9 1023.4 4.4 ENE 11.5 E 0.0 71.0 0.0
01:05 8.1 87.5 1023.4 3.5 ENE 8.8 ENE 0.0 71.1 0.0
01:10 8.2 87.2 1023.4 5.1 NE 8.8 ENE 0.0 71.2 0.0
01:15 8.2 87.2 1023.3 2.3 NE 6.1 NNE 0.0 71.2 0.0
01:20 8.1 87.5 1023.4 3.3 NE 6.1 NNE 0.0 71.3 0.0
01:25 8.1 87.7 1023.3 3.1 ENE 8.8 ENE 0.0 71.4 0.0
01:30 8.0 88.1 1023.4 1.8 ENE 6.1 NE 0.0 71.5 0.0
01:35 7.8 89.4 1023.3 0.0 NNE 0.0 NE 0.0 71.6 0.0
01:40 7.6 90.0 1023.3 0.1 W 3.4 WSW 0.0 71.8 0.0
01:45 7.4 91.0 1023.4 0.0 NNE 0.0 E 0.0 72.0 0.0
01:50 7.3 91.4 1023.4 1.1 SE 6.1 ESE 0.0 72.3 0.0
01:55 7.3 91.7 1023.4 1.6 ESE 6.1 ENE 0.0 72.5 0.0
02:00 7.2 91.9 1023.4 1.8 ENE 8.8 NE 0.0 72.7 0.0
02:05 7.3 91.6 1023.4 2.3 ENE 11.5 E 0.0 73.0 0.0
02:10 7.3 91.1 1023.4 4.1 NE 8.8 NNE 0.0 73.2 0.0
02:15 7.4 90.6 1023.3 4.7 NE 8.8 ENE 0.0 73.4 0.0
02:20 7.6 89.2 1023.3 3.5 ENE 8.8 NE 0.0 73.5 0.0
02:25 7.5 89.8 1023.3 2.0 ENE 6.1 NE 0.0 73.6 0.0
02:30 7.4 90.4 1023.4 0.0 NNE 0.0 N 0.0 73.8 0.0
02:35 7.2 91.2 1023.4 0.0 NNE 0.0 WNW 0.0 73.9 0.0
02:40 7.1 92.0 1023.4 0.0 SE 3.4 SE 0.0 74.2 0.0
02:45 7.0 92.5 1023.3 0.0 NNE 0.0 W 0.0 74.4 0.0
02:50 6.9 93.0 1023.3 0.0 NNE 0.0 W 0.0 74.7 0.0
02:55 6.7 93.3 1023.3 0.2 SSW 3.4 SSW 0.0 75.0 0.0
03:00 6.5 93.6 1023.3 0.1 ENE 6.1 E 0.0 75.2 0.0
03:05 6.4 93.9 1023.3 0.7 ENE 6.1 NE 0.0 75.5 0.0
03:10 6.3 94.2 1023.3 0.0 NNE 0.0 SW 0.0 75.9 0.0
03:15 6.2 94.5 1023.3 0.1 WSW 3.4 WSW 0.0 76.3 0.0
03:20 6.1 94.7 1023.3 0.0 NNE 0.0 SW 0.0 76.6 0.0
03:25 6.0 95.0 1023.3 0.0 NNE 0.0 SW 0.0 76.9 0.0
03:30 5.8 95.1 1023.3 0.1 ESE 6.1 E 0.0 77.2 0.0
03:35 5.8 95.6 1023.3 0.1 WSW 3.4 WSW 0.0 77.7 0.0
03:40 5.8 95.8 1023.3 0.9 WSW 3.4 WSW 0.0 78.1 0.0
03:45 5.9 96.1 1023.4 0.0 NNE 0.0 W 0.0 78.5 0.0
03:50 5.9 95.9 1023.4 0.0 SW 3.4 SW 0.0 78.8 0.0
03:55 5.8 95.8 1023.4 0.0 NNE 0.0 SW 0.0 79.0 0.0
04:00 5.9 96.0 1023.3 0.0 NNE 0.0 SW 0.0 79.3 0.0
04:05 5.8 95.9 1023.4 0.0 NNE 0.0 SW 0.0 79.6 0.0
04:10 5.8 96.2 1023.4 0.3 SW 3.4 SW 0.0 80.0 0.0
04:15 5.9 96.3 1023.3 0.0 NNE 0.0 SW 0.0 80.3 0.0
04:20 5.9 96.2 1023.4 0.0 NNE 0.0 SW 0.0 80.5 0.0
04:25 5.8 96.2 1023.4 0.0 NNE 0.0 SW 0.0 80.8 0.0
04:30 5.7 96.2 1023.4 0.0 NNE 0.0 SW 0.0 81.2 0.0
04:35 5.6 96.3 1023.3 0.0 NNE 0.0 SW 0.0 81.5 0.0
04:40 5.6 96.4 1023.3 0.0 NNE 0.0 WSW 0.0 81.8 0.0
04:45 5.5 96.3 1023.3 0.0 NNE 0.0 WSW 0.0 82.1 0.0
04:50 5.4 96.4 1023.3 0.0 NNE 0.0 WSW 0.0 82.4 0.0
04:55 5.3 96.5 1023.3 0.0 NNE 0.0 WSW 0.0 82.7 0.0
05:00 5.2 96.5 1023.3 1.0 WSW 6.1 WSW 0.0 83.1 0.0
05:05 5.2 96.6 1023.3 2.2 WSW 6.1 WSW 0.0 83.4 0.0
05:10 5.1 96.7 1023.3 3.4 WSW 6.1 WSW 0.0 83.8 0.0
05:15 5.2 97.0 1023.3 1.6 WSW 3.4 WSW 0.0 84.2 0.0
05:20 5.3 97.1 1023.3 0.6 W 3.4 W 0.0 84.6 0.0
05:25 5.4 97.3 1023.3 1.1 SW 3.4 WSW 0.0 84.9 0.0
05:30 5.5 97.2 1023.3 2.7 WSW 6.1 WSW 0.0 85.2 0.0
05:35 5.7 97.3 1023.3 4.0 WSW 6.1 WSW 0.0 85.6 0.0
05:40 5.8 97.1 1023.3 0.2 WSW 3.4 WSW 0.0 85.9 0.0
05:45 5.8 96.7 1023.3 0.2 WSW 3.4 SW 0.0 86.1 0.0
05:50 5.9 96.5 1023.3 1.4 SW 6.1 SW 0.0 86.2 0.0
05:55 5.9 96.5 1023.3 1.0 SW 6.1 WSW 0.0 86.5 0.0
06:00 6.0 96.4 1023.3 1.9 SW 8.8 SSE 0.0 86.7 0.0
06:05 6.0 96.3 1023.3 0.0 NNE 0.0 WSW 0.0 86.9 0.0
06:10 6.1 96.4 1023.3 0.0 NNE 0.0 WSW 0.0 87.0 0.1
06:15 6.1 96.2 1023.3 0.0 NNE 0.0 WSW 0.0 87.3 0.3
06:20 6.0 95.8 1023.3 0.0 NNE 0.0 WSW 0.0 87.5 0.9
06:25 6.1 95.7 1023.3 0.3 SSW 3.4 SE 0.0 87.7 1.7
06:30 6.3 95.0 1023.3 0.6 SW 6.1 SW 0.0 87.9 4.4
06:35 6.3 94.0 1023.3 0.3 SW 3.4 SSW 0.0 87.8 7.6
06:40 6.2 94.0 1023.3 0.8 WSW 3.4 WSW 0.0 88.0 12.6
06:45 6.1 94.2 1023.4 0.1 SW 3.4 SW 0.0 88.2 16.7
06:50 6.0 94.5 1023.4 0.7 WSW 3.4 WSW 0.0 88.5 17.4
06:55 6.1 95.1 1023.5 0.6 S 6.1 S 0.0 88.8 20.3
07:00 6.2 95.4 1023.6 1.0 SW 3.4 S 0.0 89.0 27.9
07:05 6.4 95.6 1023.6 0.2 W 6.1 W 0.0 89.3 39.1
07:10 6.7 95.5 1023.7 1.5 SW 6.1 W 0.0 89.4 44.7
07:15 7.0 92.9 1023.8 0.9 W 3.4 WSW 0.0 89.2 41.6
07:20 7.4 91.4 1023.8 0.1 WNW 3.4 WNW 0.0 89.1 38.4
07:25 7.5 90.0 1023.8 0.6 ESE 6.1 ESE 0.0 88.9 42.2
07:30 7.7 88.4 1023.8 0.0 NNE 0.0 E 0.0 88.7 43.0
07:35 7.6 88.8 1023.8 1.9 NE 6.1 NE 0.0 88.4 64.8
07:40 7.1 90.4 1023.8 0.3 ENE 3.4 ENE 0.0 88.0 83.0
07:45 7.3 91.6 1023.8 0.1 ENE 3.4 ENE 0.0 88.1 81.4
07:50 7.5 91.4 1023.8 0.0 NNE 0.0 ENE 0.0 88.0 102.2
07:55 7.9 91.2 1023.9 0.2 ENE 3.4 ENE 0.0 87.9 106.1
08:00 7.7 89.9 1023.8 0.5 ENE 3.4 ENE 0.0 87.2 121.0
08:05 7.8 89.7 1023.8 0.0 ENE 3.4 ENE 0.0 86.8 133.1
08:10 7.9 89.4 1023.7 0.0 ENE 3.4 ENE 0.0 86.3 138.6
08:15 7.9 88.6 1023.7 0.0 NNE 0.0 ENE 0.0 85.8 156.0
08:20 8.2 88.3 1023.7 0.0 NNE 0.0 NE 0.0 85.5 128.0
08:25 8.5 86.4 1023.7 0.0 NNE 0.0 SE 0.0 84.9 106.5
08:30 8.6 85.1 1023.7 0.0 NNE 0.0 WSW 0.0 84.3 100.8
08:35 8.7 84.7 1023.8 0.0 NNE 0.0 SE 0.0 84.0 103.7
08:40 8.8 83.5 1023.8 0.0 NNE 0.0 NNW 0.0 83.5 95.1
08:45 8.8 82.6 1023.8 0.0 NNE 0.0 NNE 0.0 82.9 86.2
08:50 8.7 82.6 1023.8 0.7 ENE 6.1 E 0.0 82.4 89.3
08:55 8.9 82.8 1023.8 0.5 ENE 6.1 ENE 0.0 82.1 83.3
09:00 8.9 82.2 1023.8 0.5 ENE 6.1 NE 0.0 81.7 102.1
09:05 9.1 81.4 1023.8 2.3 ENE 8.8 E 0.0 81.4 129.6
09:10 9.2 80.6 1023.9 4.9 ENE 8.8 ENE 0.0 80.8 132.8
09:15 9.2 80.0 1023.8 6.4 ENE 11.5 ENE 0.0 80.3 146.0
09:20 9.2 80.6 1023.9 3.1 ENE 11.5 ENE 0.0 79.8 134.7
09:25 9.3 80.3 1023.9 7.1 ENE 16.9 ENE 0.0 79.3 135.3
09:30 9.3 80.1 1023.9 9.8 ENE 19.6 NE 0.0 78.8 151.3
09:35 9.4 80.8 1023.9 10.1 ENE 16.9 ENE 0.0 78.5 168.6
09:40 9.5 81.1 1023.9 10.8 ENE 16.9 ENE 0.0 78.2 163.9
09:45 9.5 80.8 1023.9 13.0 ENE 19.6 ENE 0.0 77.8 173.4
09:50 9.6 81.1 1023.9 11.4 ENE 19.6 ENE 0.0 77.5 187.9
09:55 9.6 81.1 1023.9 9.6 E 19.6 ENE 0.0 77.2 190.9
10:00 9.8 80.8 1023.9 9.7 E 16.9 ENE 0.0 76.9 212.4
10:05 9.8 80.2 1023.9 11.2 E 19.6 ENE 0.0 76.5 225.2
10:10 9.9 80.3 1024.0 7.6 E 14.2 ENE 0.0 76.2 242.4
10:15 10.0 79.5 1024.0 10.9 ENE 19.6 E 0.0 75.7 252.9
10:20 10.0 79.8 1023.9 10.3 ENE 16.9 NE 0.0 75.3 270.6
10:25 10.2 79.5 1023.9 6.8 ENE 14.2 E 0.0 74.9 261.1
10:30 10.4 79.1 1023.9 7.5 E 16.9 ENE 0.0 74.5 243.6
10:35 10.3 79.3 1023.9 9.7 ENE 16.9 E 0.0 74.0 273.7
10:40 10.3 79.2 1024.0 7.5 ENE 14.2 E 0.0 73.5 218.5
10:45 10.5 78.9 1023.9 12.1 ENE 22.3 NE 0.0 73.2 243.3
10:50 10.4 78.5 1023.9 12.7 ENE 19.6 ENE 0.0 72.6 231.4
10:55 10.4 78.4 1023.9 10.4 ENE 19.6 E 0.0 72.4 248.8
11:00 10.6 77.5 1023.8 10.0 NE 22.3 NE 0.0 72.2 262.9
11:05 10.7 76.5 1023.9 10.1 NE 19.6 ENE 0.0 71.7 197.0
11:10 10.7 76.3 1023.8 10.3 ENE 16.9 ENE 0.0 71.2 231.9
11:15 10.9 76.0 1023.8 10.6 NE 22.3 NE 0.0 71.1 305.1
11:20 11.1 73.6 1023.7 10.2 NE 19.6 NE 0.0 70.6 286.4
11:25 11.1 72.6 1023.7 12.0 NE 19.6 NE 0.0 70.0 303.1
11:30 11.1 71.8 1023.6 11.5 NE 19.6 NE 0.0 69.4 294.6
11:35 11.3 71.1 1023.6 11.3 NE 22.3 NE 0.0 69.0 386.1
11:40 11.6 70.7 1023.6 8.6 ENE 16.9 NE 0.0 69.1 585.0
11:45 12.0 69.8 1023.4 13.8 NE 25.0 ENE 0.0 68.1 455.8
11:50 11.6 70.2 1023.5 11.7 ENE 19.6 ENE 0.0 66.7 311.2
11:55 11.6 71.1 1023.4 11.1 ENE 25.0 NE 0.0 66.2 265.4
12:00 11.5 71.0 1023.4 14.1 NE 25.0 ENE 0.0 65.6 217.5
12:05 11.3 71.6 1023.4 10.7 NE 22.3 ENE 0.0 65.3 267.4
12:10 11.4 71.8 1023.4 12.8 NE 22.3 NE 0.0 65.1 232.6
12:15 11.4 72.1 1023.3 12.2 NE 22.3 NNE 0.0 64.8 227.0
12:20 11.4 72.2 1023.3 12.0 ENE 22.3 ENE 0.0 64.8 337.3
12:25 11.6 71.5 1023.2 14.1 ENE 25.0 E 0.0 64.7 392.5
12:30 11.8 71.6 1023.2 11.6 ENE 19.6 ENE 0.0 64.3 348.0
12:35 11.9 70.6 1023.2 12.7 ENE 22.3 NE 0.0 63.7 267.4
12:40 11.6 71.8 1023.1 15.1 ENE 25.0 ENE 0.0 63.2 245.1
12:45 11.4 72.6 1023.1 13.5 ENE 22.3 ENE 0.0 62.9 211.0
12:50 11.4 73.3 1023.1 12.5 ENE 25.0 ENE 0.0 62.9 259.6
12:55 11.5 73.5 1023.0 13.0 ENE 22.3 ENE 0.0 62.9 279.2
13:00 11.6 72.6 1023.0 13.9 ENE 27.7 ENE 0.0 62.6 280.3
13:05 11.5 71.4 1023.0 14.3 ENE 25.0 ENE 0.0 62.3 287.6
13:10 11.6 70.6 1023.0 13.5 ENE 22.3 ENE 0.0 62.3 382.1
13:15 11.9 69.1 1022.9 12.0 ENE 19.6 ENE 0.0 62.1 388.9
13:20 12.1 68.1 1022.9 14.6 ENE 25.0 ENE 0.0 61.9 593.6
13:25 12.3 67.5 1022.9 11.1 ENE 19.6 ENE 0.0 61.6 523.0
13:30 12.7 66.4 1022.9 9.6 NE 22.3 NE 0.0 61.3 615.2
13:35 12.7 67.0 1022.9 14.6 ENE 25.0 E 0.0 60.4 419.1
Màxima 12.8 97.3 1024.0 15.1 ENE 27.7 ENE 0.0 89.4 615.2
Mínima 5.1 66.4 1022.9 60.4
Total 0.0